Time;durP1;ratioP1;P1;durP2;ratioP2;P2;SDS_P1;SDS_P2;PMS_P1;PMS_P2;Temp;Humidity;BMP_temperature;BMP_pressure;BME280_temperature;BME280_humidity;BME280_pressure;Samples;Min_cycle;Max_cycle;Signal;HPM_P1;HPM_P2
2023/01/25 00:01:05;;;;;;;34.00;26.75;;;;;;;;;;5080483;28;20028;-59
2023/01/25 00:03:31;;;;;;;35.50;27.23;;;;;;;;;;5077594;28;20124;-58
2023/01/25 00:06:00;;;;;;;34.90;26.60;;;;;;;;;;5081008;28;20115;-58
2023/01/25 00:08:26;;;;;;;34.92;26.50;;;;;;;;;;5083878;28;20036;-58
2023/01/25 00:10:52;;;;;;;35.13;26.40;;;;;;;;;;5080193;28;20116;-58
2023/01/25 00:13:18;;;;;;;35.20;26.52;;;;;;;;;;5080045;28;20111;-55
2023/01/25 00:15:44;;;;;;;33.78;26.65;;;;;;;;;;5083524;28;20421;-57
2023/01/25 00:18:10;;;;;;;32.80;25.90;;;;;;;;;;5077035;28;20044;-58
2023/01/25 00:20:36;;;;;;;32.88;26.17;;;;;;;;;;5080302;28;20040;-59
2023/01/25 00:23:02;;;;;;;32.22;26.35;;;;;;;;;;5079474;28;20035;-58
2023/01/25 00:25:28;;;;;;;32.28;25.48;;;;;;;;;;5080093;28;20513;-57
2023/01/25 00:27:54;;;;;;;31.70;24.27;;;;;;;;;;5080521;28;20025;-59
2023/01/25 00:30:20;;;;;;;33.70;26.13;;;;;;;;;;5082657;28;20033;-57
2023/01/25 00:32:53;;;;;;;32.70;24.88;;;;;;;;;;5079484;28;20047;-59
2023/01/25 00:35:20;;;;;;;30.25;24.42;;;;;;;;;;5080882;28;20044;-55
2023/01/25 00:37:53;;;;;;;31.88;25.23;;;;;;;;;;5080819;28;20043;-58
2023/01/25 00:40:19;;;;;;;33.20;26.42;;;;;;;;;;5079879;28;20113;-58
2023/01/25 00:42:45;;;;;;;32.30;26.08;;;;;;;;;;5078819;28;20522;-60
2023/01/25 00:45:12;;;;;;;34.63;24.95;;;;;;;;;;5082170;28;20042;-60
2023/01/25 00:47:38;;;;;;;32.72;25.77;;;;;;;;;;5081760;28;20071;-58
2023/01/25 00:50:05;;;;;;;31.13;25.48;;;;;;;;;;5080623;28;20055;-57
2023/01/25 00:52:31;;;;;;;32.45;25.08;;;;;;;;;;5077005;28;20042;-58
2023/01/25 00:54:57;;;;;;;32.70;25.35;;;;;;;;;;5064575;28;20036;-58
2023/01/25 00:57:23;;;;;;;32.13;25.13;;;;;;;;;;5080788;28;20036;-59
2023/01/25 00:59:49;;;;;;;31.50;25.25;;;;;;;;;;5081929;28;20035;-57
2023/01/25 01:02:14;;;;;;;33.05;25.90;;;;;;;;;;5077542;28;20042;-58
2023/01/25 01:04:40;;;;;;;31.35;24.88;;;;;;;;;;5080568;28;20351;-59
2023/01/25 01:07:06;;;;;;;33.63;24.50;;;;;;;;;;5082624;28;20063;-58
2023/01/25 01:09:32;;;;;;;31.90;25.80;;;;;;;;;;5081643;28;20040;-58
2023/01/25 01:11:58;;;;;;;34.30;25.65;;;;;;;;;;5078174;28;20462;-58
2023/01/25 01:14:24;;;;;;;31.33;24.40;;;;;;;;;;5081000;28;20236;-57
2023/01/25 01:16:50;;;;;;;33.50;25.98;;;;;;;;;;5079668;28;20076;-58
2023/01/25 01:19:16;;;;;;;32.90;26.15;;;;;;;;;;5080344;28;20051;-58
2023/01/25 01:21:42;;;;;;;31.30;25.13;;;;;;;;;;5079531;28;20040;-59
2023/01/25 01:24:09;;;;;;;32.72;25.58;;;;;;;;;;5081159;28;20047;-57
2023/01/25 01:26:35;;;;;;;34.65;25.55;;;;;;;;;;5084353;28;20521;-57
2023/01/25 01:29:01;;;;;;;33.08;25.92;;;;;;;;;;5084081;28;20040;-59
2023/01/25 01:31:27;;;;;;;33.10;26.80;;;;;;;;;;5084366;28;20167;-57
2023/01/25 01:33:55;;;;;;;33.92;26.55;;;;;;;;;;5083583;28;20124;-57
2023/01/25 01:36:22;;;;;;;35.83;26.55;;;;;;;;;;5084250;28;20479;-57
2023/01/25 01:38:48;;;;;;;33.75;25.38;;;;;;;;;;5084602;28;20101;-58
2023/01/25 01:41:21;;;;;;;33.50;25.80;;;;;;;;;;5081680;28;21163;-58
2023/01/25 01:43:47;;;;;;;33.15;25.35;;;;;;;;;;5083004;28;20028;-59
2023/01/25 01:46:24;;;;;;;33.42;26.17;;;;;;;;;;5084917;28;20051;-58
2023/01/25 01:48:53;;;;;;;32.53;25.17;;;;;;;;;;5080431;28;20032;-58
2023/01/25 01:51:34;;;;;;;33.10;25.88;;;;;;;;;;5082626;28;20365;-57
2023/01/25 01:54:05;;;;;;;33.38;26.30;;;;;;;;;;5082529;28;20036;-55
2023/01/25 01:56:35;;;;;;;33.22;25.42;;;;;;;;;;5080903;28;20032;-60
2023/01/25 01:59:03;;;;;;;33.22;26.15;;;;;;;;;;5084574;28;20370;-59
2023/01/25 02:01:29;;;;;;;33.28;25.60;;;;;;;;;;5081321;28;20032;-58
2023/01/25 02:03:55;;;;;;;33.40;25.15;;;;;;;;;;5083621;28;20450;-57
2023/01/25 02:06:34;;;;;;;34.22;25.98;;;;;;;;;;5065404;28;20155;-58
2023/01/25 02:09:00;;;;;;;34.65;25.90;;;;;;;;;;5084331;28;20041;-59
2023/01/25 02:11:27;;;;;;;36.40;26.20;;;;;;;;;;5081640;28;20066;-60
2023/01/25 02:13:54;;;;;;;34.20;25.92;;;;;;;;;;5083632;28;20485;-56
2023/01/25 02:16:23;;;;;;;34.63;26.00;;;;;;;;;;5065304;28;20082;-57
2023/01/25 02:18:49;;;;;;;34.80;25.95;;;;;;;;;;5083511;28;20045;-58
2023/01/25 02:21:15;;;;;;;34.13;26.98;;;;;;;;;;5083036;28;20127;-59
2023/01/25 02:23:47;;;;;;;34.67;25.88;;;;;;;;;;5085242;28;20029;-58
2023/01/25 02:26:14;;;;;;;33.38;26.17;;;;;;;;;;5080079;28;20382;-57
2023/01/25 02:28:55;;;;;;;35.28;26.48;;;;;;;;;;5081952;28;20340;-59
2023/01/25 02:31:21;;;;;;;33.55;25.63;;;;;;;;;;5081939;28;20037;-57
2023/01/25 02:33:47;;;;;;;36.15;27.42;;;;;;;;;;5082179;28;20047;-58
2023/01/25 02:36:21;;;;;;;35.72;26.27;;;;;;;;;;5081230;28;20082;-59
2023/01/25 02:39:17;;;;;;;37.97;27.80;;;;;;;;;;5083645;28;20040;-58
2023/01/25 02:41:50;;;;;;;35.55;26.67;;;;;;;;;;5063200;28;20051;-59
2023/01/25 02:44:15;;;;;;;39.17;28.08;;;;;;;;;;5081863;28;20040;-58
2023/01/25 02:46:43;;;;;;;37.72;27.67;;;;;;;;;;5083817;28;20035;-58
2023/01/25 02:49:10;;;;;;;36.65;26.65;;;;;;;;;;5082043;28;20071;-59
2023/01/25 02:51:37;;;;;;;37.00;28.42;;;;;;;;;;5080747;28;20032;-58
2023/01/25 02:54:04;;;;;;;34.90;26.48;;;;;;;;;;5082651;28;20043;-59
2023/01/25 02:56:30;;;;;;;37.17;27.58;;;;;;;;;;5066664;28;20459;-58
2023/01/25 02:58:56;;;;;;;38.80;29.00;;;;;;;;;;5082685;28;20032;-58
2023/01/25 03:01:23;;;;;;;38.20;28.13;;;;;;;;;;5080978;28;20090;-59
2023/01/25 03:03:49;;;;;;;36.60;27.17;;;;;;;;;;5082311;28;20036;-60
2023/01/25 03:06:15;;;;;;;38.30;27.75;;;;;;;;;;5083529;28;20421;-57
2023/01/25 03:08:41;;;;;;;37.08;26.70;;;;;;;;;;5082868;28;20039;-58
2023/01/25 03:11:07;;;;;;;38.10;27.08;;;;;;;;;;5081713;28;20115;-58
2023/01/25 03:13:35;;;;;;;38.90;28.08;;;;;;;;;;5080659;28;20047;-57
2023/01/25 03:16:03;;;;;;;39.92;28.67;;;;;;;;;;5082856;28;20172;-57
2023/01/25 03:18:29;;;;;;;38.05;28.25;;;;;;;;;;5083765;28;20536;-57
2023/01/25 03:20:55;;;;;;;35.45;27.15;;;;;;;;;;5083082;28;20107;-58
2023/01/25 03:23:21;;;;;;;38.50;27.52;;;;;;;;;;5077892;28;20051;-59
2023/01/25 03:25:47;;;;;;;38.67;28.75;;;;;;;;;;5082916;28;20111;-57
2023/01/25 03:28:13;;;;;;;37.20;26.88;;;;;;;;;;5080586;28;20123;-58
2023/01/25 03:30:39;;;;;;;38.88;28.35;;;;;;;;;;5083112;28;20035;-62
2023/01/25 03:33:07;;;;;;;41.13;28.67;;;;;;;;;;5081857;28;20064;-58
2023/01/25 03:35:33;;;;;;;39.90;28.50;;;;;;;;;;5082874;28;20111;-59
2023/01/25 03:37:58;;;;;;;38.05;28.65;;;;;;;;;;5081141;28;20489;-59
2023/01/25 03:40:26;;;;;;;38.45;27.77;;;;;;;;;;5081938;28;20062;-58
2023/01/25 03:43:00;;;;;;;39.40;28.00;;;;;;;;;;5077837;28;20049;-58
2023/01/25 03:45:25;;;;;;;41.33;29.33;;;;;;;;;;5080901;28;20459;-59
2023/01/25 03:47:51;;;;;;;38.80;27.63;;;;;;;;;;5082336;28;20052;-58
2023/01/25 03:50:17;;;;;;;36.13;27.83;;;;;;;;;;5081305;28;20591;-56
2023/01/25 03:52:46;;;;;;;37.95;27.75;;;;;;;;;;5079412;28;20067;-57
2023/01/25 03:55:12;;;;;;;37.30;27.33;;;;;;;;;;5078481;28;20036;-58
2023/01/25 03:57:38;;;;;;;38.88;28.05;;;;;;;;;;5081810;28;20468;-57
2023/01/25 04:00:04;;;;;;;39.17;27.98;;;;;;;;;;5079864;28;20028;-58
2023/01/25 04:02:30;;;;;;;40.30;29.80;;;;;;;;;;5079290;28;20066;-59
2023/01/25 04:04:56;;;;;;;40.55;29.75;;;;;;;;;;5082552;28;20036;-59
2023/01/25 04:07:22;;;;;;;37.28;27.58;;;;;;;;;;5081335;28;20059;-58
2023/01/25 04:09:49;;;;;;;37.20;27.08;;;;;;;;;;5082533;28;20036;-59
2023/01/25 04:12:15;;;;;;;39.53;28.83;;;;;;;;;;5062862;28;20076;-59
2023/01/25 04:14:43;;;;;;;39.75;29.15;;;;;;;;;;5079149;28;20136;-59
2023/01/25 04:17:09;;;;;;;38.67;27.40;;;;;;;;;;5080781;28;20044;-58
2023/01/25 04:19:36;;;;;;;38.65;28.88;;;;;;;;;;5081647;28;20360;-56
2023/01/25 04:22:02;;;;;;;39.22;27.85;;;;;;;;;;5079655;28;20063;-59
2023/01/25 04:24:28;;;;;;;39.42;27.67;;;;;;;;;;5082373;28;20403;-56
2023/01/25 04:26:54;;;;;;;38.50;27.75;;;;;;;;;;5081735;28;20044;-57
2023/01/25 04:29:20;;;;;;;39.08;28.73;;;;;;;;;;5079669;28;20089;-57
2023/01/25 04:31:46;;;;;;;35.95;27.38;;;;;;;;;;5080425;28;20110;-57
2023/01/25 04:34:11;;;;;;;38.67;27.52;;;;;;;;;;5081576;28;20415;-57
2023/01/25 04:36:41;;;;;;;36.63;26.17;;;;;;;;;;5081199;28;20074;-58
2023/01/25 04:39:08;;;;;;;37.80;28.38;;;;;;;;;;5081708;28;20042;-57
2023/01/25 04:41:34;;;;;;;38.72;26.85;;;;;;;;;;5080515;28;20036;-57
2023/01/25 04:44:00;;;;;;;36.03;26.75;;;;;;;;;;5081640;28;20036;-59
2023/01/25 04:46:25;;;;;;;36.28;26.45;;;;;;;;;;5083344;28;20485;-59
2023/01/25 04:48:51;;;;;;;37.90;27.45;;;;;;;;;;5080269;28;20130;-59
2023/01/25 04:51:17;;;;;;;37.33;27.52;;;;;;;;;;5078531;28;20536;-57
2023/01/25 04:53:43;;;;;;;35.08;26.33;;;;;;;;;;5083196;28;20044;-55
2023/01/25 04:56:09;;;;;;;36.55;27.60;;;;;;;;;;5080450;28;20044;-60
2023/01/25 04:58:35;;;;;;;37.47;27.02;;;;;;;;;;5081117;28;20032;-58
2023/01/25 05:01:01;;;;;;;36.90;27.08;;;;;;;;;;5082320;28;20044;-59
2023/01/25 05:03:27;;;;;;;35.13;25.75;;;;;;;;;;5075974;28;20032;-59
2023/01/25 05:05:53;;;;;;;35.83;25.65;;;;;;;;;;5083115;28;20035;-59
2023/01/25 05:08:19;;;;;;;35.80;27.23;;;;;;;;;;5081334;28;20106;-58
2023/01/25 05:10:46;;;;;;;41.50;28.63;;;;;;;;;;5079392;28;20039;-58
2023/01/25 05:13:12;;;;;;;38.33;28.27;;;;;;;;;;5073436;28;20072;-58
2023/01/25 05:15:42;;;;;;;36.00;26.55;;;;;;;;;;5082057;28;20495;-57
2023/01/25 05:18:09;;;;;;;37.60;26.58;;;;;;;;;;5083500;28;20047;-59
2023/01/25 05:20:35;;;;;;;38.65;27.35;;;;;;;;;;5080218;28;20417;-58
2023/01/25 05:23:01;;;;;;;38.60;27.95;;;;;;;;;;5078294;28;20037;-58
2023/01/25 05:28:14;;;;;;;37.15;26.73;;;;;;;;;;5079203;28;20106;-58
2023/01/25 05:30:40;;;;;;;40.35;29.05;;;;;;;;;;5062972;28;20055;-59
2023/01/25 05:33:06;;;;;;;40.47;29.73;;;;;;;;;;5079756;28;20399;-57
2023/01/25 05:35:39;;;;;;;41.80;29.63;;;;;;;;;;5081200;28;20076;-59
2023/01/25 05:38:05;;;;;;;42.40;29.10;;;;;;;;;;5079107;28;20837;-58
2023/01/25 05:40:32;;;;;;;38.22;27.88;;;;;;;;;;5075190;28;20043;-60
2023/01/25 05:42:58;;;;;;;39.70;27.95;;;;;;;;;;5079776;28;20036;-58
2023/01/25 05:45:25;;;;;;;40.53;29.30;;;;;;;;;;5080009;28;20037;-57
2023/01/25 05:47:54;;;;;;;41.10;30.48;;;;;;;;;;5076451;28;20051;-57
2023/01/25 05:50:20;;;;;;;44.88;30.63;;;;;;;;;;5080967;28;20113;-57
2023/01/25 05:52:46;;;;;;;47.38;29.92;;;;;;;;;;5077702;28;20338;-60
2023/01/25 05:55:12;;;;;;;41.45;28.75;;;;;;;;;;5080080;28;20143;-58
2023/01/25 05:57:38;;;;;;;39.55;27.98;;;;;;;;;;5080764;28;20040;-60
2023/01/25 06:00:05;;;;;;;40.00;27.98;;;;;;;;;;5072853;28;20057;-56
2023/01/25 06:02:32;;;;;;;43.80;29.55;;;;;;;;;;5070245;28;20097;-59
2023/01/25 06:04:58;;;;;;;40.83;28.23;;;;;;;;;;5058314;28;20044;-57
2023/01/25 06:07:24;;;;;;;42.65;30.95;;;;;;;;;;5076658;28;20382;-59
2023/01/25 06:09:50;;;;;;;41.50;29.67;;;;;;;;;;5087306;28;20064;-59
2023/01/25 06:12:16;;;;;;;41.17;29.10;;;;;;;;;;5082323;28;20094;-59
2023/01/25 06:14:42;;;;;;;39.53;29.05;;;;;;;;;;5082727;28;20032;-58
2023/01/25 06:17:08;;;;;;;40.90;29.33;;;;;;;;;;5083135;28;20072;-57
2023/01/25 06:19:34;;;;;;;39.75;28.55;;;;;;;;;;5082352;28;20040;-58
2023/01/25 06:22:00;;;;;;;37.22;27.23;;;;;;;;;;5082387;28;20042;-57
2023/01/25 06:24:26;;;;;;;38.50;27.58;;;;;;;;;;5074360;28;20448;-61
2023/01/25 06:26:52;;;;;;;37.80;27.80;;;;;;;;;;5084232;28;20037;-57
2023/01/25 06:29:18;;;;;;;37.40;26.80;;;;;;;;;;5082358;28;20431;-57
2023/01/25 06:31:44;;;;;;;37.35;26.75;;;;;;;;;;5083675;28;20041;-61
2023/01/25 06:34:10;;;;;;;36.13;25.52;;;;;;;;;;5082842;28;20044;-60
2023/01/25 06:36:42;;;;;;;37.20;26.88;;;;;;;;;;5083123;28;20080;-57
2023/01/25 06:39:08;;;;;;;35.58;25.27;;;;;;;;;;5083148;28;20106;-57
2023/01/25 06:41:34;;;;;;;41.47;27.02;;;;;;;;;;5082172;28;20071;-58
2023/01/25 06:44:00;;;;;;;39.97;26.10;;;;;;;;;;5085146;28;20033;-58
2023/01/25 06:46:26;;;;;;;34.15;24.15;;;;;;;;;;5073398;28;20094;-57
2023/01/25 06:48:52;;;;;;;34.08;25.00;;;;;;;;;;5083451;28;20102;-58
2023/01/25 06:51:18;;;;;;;35.80;25.90;;;;;;;;;;5081170;28;20368;-59
2023/01/25 06:53:45;;;;;;;37.10;26.30;;;;;;;;;;5081363;28;20162;-59
2023/01/25 06:56:21;;;;;;;38.88;26.52;;;;;;;;;;5079962;28;20483;-59
2023/01/25 06:58:48;;;;;;;38.80;27.60;;;;;;;;;;5080649;28;20037;-59
2023/01/25 07:01:15;;;;;;;39.08;26.80;;;;;;;;;;5084302;28;20036;-58
2023/01/25 07:03:41;;;;;;;39.15;26.88;;;;;;;;;;5079585;28;20448;-58
2023/01/25 07:06:08;;;;;;;36.72;26.88;;;;;;;;;;5082073;28;20036;-59
2023/01/25 07:08:35;;;;;;;38.13;26.45;;;;;;;;;;5079782;28;20445;-59
2023/01/25 07:11:02;;;;;;;37.33;26.27;;;;;;;;;;5080527;28;20036;-59
2023/01/25 07:13:30;;;;;;;35.25;25.05;;;;;;;;;;5058059;28;20047;-55
2023/01/25 07:16:04;;;;;;;36.67;24.63;;;;;;;;;;5083037;28;20028;-56
2023/01/25 07:18:33;;;;;;;37.22;26.40;;;;;;;;;;5088633;28;20040;-57
2023/01/25 07:21:02;;;;;;;37.97;26.50;;;;;;;;;;5088088;28;20040;-56
2023/01/25 07:23:31;;;;;;;38.15;27.50;;;;;;;;;;5079053;28;20072;-59
2023/01/25 07:25:57;;;;;;;38.08;26.25;;;;;;;;;;5072806;28;20036;-59
2023/01/25 07:28:26;;;;;;;39.30;25.80;;;;;;;;;;5080872;28;20047;-56
2023/01/25 07:30:52;;;;;;;39.00;26.55;;;;;;;;;;5074646;28;20036;-57
2023/01/25 07:33:18;;;;;;;38.10;26.70;;;;;;;;;;5080314;28;20089;-59
2023/01/25 07:35:45;;;;;;;36.30;25.63;;;;;;;;;;5080213;28;20072;-60
2023/01/25 07:38:11;;;;;;;37.08;27.80;;;;;;;;;;5080231;28;20087;-57
2023/01/25 07:40:38;;;;;;;34.88;25.45;;;;;;;;;;5074631;28;20059;-56
2023/01/25 07:43:08;;;;;;;36.70;25.80;;;;;;;;;;5078191;28;20109;-56
2023/01/25 07:45:34;;;;;;;41.38;26.10;;;;;;;;;;5081854;28;20040;-58
2023/01/25 07:48:00;;;;;;;42.22;27.23;;;;;;;;;;5080423;28;20075;-58
2023/01/25 07:50:26;;;;;;;42.17;27.02;;;;;;;;;;5066081;28;20086;-57
2023/01/25 07:52:53;;;;;;;34.75;24.40;;;;;;;;;;5073114;28;20043;-58
2023/01/25 07:55:19;;;;;;;34.53;23.80;;;;;;;;;;5082191;28;20124;-58
2023/01/25 07:57:46;;;;;;;35.10;24.13;;;;;;;;;;5080891;28;20126;-59
2023/01/25 08:00:12;;;;;;;32.45;23.63;;;;;;;;;;5080529;28;20072;-59
2023/01/25 08:02:38;;;;;;;32.92;23.33;;;;;;;;;;5078772;28;20116;-60
2023/01/25 08:05:05;;;;;;;36.00;24.98;;;;;;;;;;5078760;28;20170;-57
2023/01/25 08:07:31;;;;;;;38.78;25.48;;;;;;;;;;5078960;28;20040;-59
2023/01/25 08:09:58;;;;;;;37.05;25.02;;;;;;;;;;5083690;28;20044;-58
2023/01/25 08:12:26;;;;;;;34.28;23.13;;;;;;;;;;5063019;28;20384;-57
2023/01/25 08:14:52;;;;;;;33.85;23.00;;;;;;;;;;5076474;28;20067;-58
2023/01/25 08:17:18;;;;;;;33.50;23.27;;;;;;;;;;5079308;28;20133;-59
2023/01/25 08:19:44;;;;;;;35.53;23.30;;;;;;;;;;5083182;28;20475;-60
2023/01/25 08:22:12;;;;;;;33.20;23.35;;;;;;;;;;5077067;28;20036;-58
2023/01/25 08:24:38;;;;;;;34.17;23.85;;;;;;;;;;5082427;28;20376;-59
2023/01/25 08:27:04;;;;;;;36.55;24.58;;;;;;;;;;5081260;28;20047;-57
2023/01/25 08:29:30;;;;;;;36.17;24.70;;;;;;;;;;5057999;28;20052;-57
2023/01/25 08:31:56;;;;;;;38.65;24.92;;;;;;;;;;5082006;28;20400;-59
2023/01/25 08:34:22;;;;;;;35.58;22.83;;;;;;;;;;5081807;28;20051;-58
2023/01/25 08:36:55;;;;;;;35.83;24.63;;;;;;;;;;5078513;28;20056;-59
2023/01/25 08:39:22;;;;;;;40.35;25.45;;;;;;;;;;5078495;28;20040;-59
2023/01/25 08:41:48;;;;;;;35.25;24.27;;;;;;;;;;5078199;28;20046;-57
2023/01/25 08:44:14;;;;;;;36.60;24.92;;;;;;;;;;5082803;28;20115;-58
2023/01/25 08:46:40;;;;;;;38.63;26.05;;;;;;;;;;5081236;28;20096;-60
2023/01/25 08:49:08;;;;;;;36.53;25.00;;;;;;;;;;5078784;28;20036;-59
2023/01/25 08:51:34;;;;;;;41.95;26.25;;;;;;;;;;5064436;28;20041;-57
2023/01/25 08:54:06;;;;;;;39.33;26.75;;;;;;;;;;5074846;28;20058;-58
2023/01/25 08:56:41;;;;;;;37.70;25.42;;;;;;;;;;5071863;28;20036;-57
2023/01/25 08:59:08;;;;;;;37.03;26.08;;;;;;;;;;5081377;28;20055;-58
2023/01/25 09:01:37;;;;;;;34.83;24.27;;;;;;;;;;5079957;28;20108;-59
2023/01/25 09:04:03;;;;;;;35.35;24.73;;;;;;;;;;5080077;28;20038;-58
2023/01/25 09:06:29;;;;;;;36.88;25.45;;;;;;;;;;5082303;28;20303;-58
2023/01/25 09:08:55;;;;;;;39.22;26.13;;;;;;;;;;5080711;28;20332;-58
2023/01/25 09:11:22;;;;;;;43.58;26.90;;;;;;;;;;5079476;28;20111;-58
2023/01/25 09:13:48;;;;;;;41.85;26.33;;;;;;;;;;5078070;28;20083;-58
2023/01/25 09:16:15;;;;;;;43.47;29.02;;;;;;;;;;5081053;28;20037;-58
2023/01/25 09:18:42;;;;;;;45.38;28.15;;;;;;;;;;5080162;28;20036;-57
2023/01/25 09:21:09;;;;;;;44.75;27.42;;;;;;;;;;5082196;28;20043;-58
2023/01/25 09:23:35;;;;;;;47.22;28.45;;;;;;;;;;5080217;28;20032;-57
2023/01/25 09:26:03;;;;;;;46.45;29.38;;;;;;;;;;5079752;28;20032;-58
2023/01/25 09:28:30;;;;;;;43.13;28.25;;;;;;;;;;5080402;28;20036;-58
2023/01/25 09:30:57;;;;;;;40.60;26.27;;;;;;;;;;5079816;28;20115;-58
2023/01/25 09:33:30;;;;;;;39.22;26.50;;;;;;;;;;5079059;28;20048;-57
2023/01/25 09:36:02;;;;;;;41.17;27.40;;;;;;;;;;5078233;28;20427;-58
2023/01/25 09:38:28;;;;;;;42.80;27.50;;;;;;;;;;5079409;28;20040;-59
2023/01/25 09:41:04;;;;;;;45.03;27.77;;;;;;;;;;5079132;28;20041;-59
2023/01/25 09:43:45;;;;;;;52.20;29.45;;;;;;;;;;5075397;28;20056;-57
2023/01/25 09:46:16;;;;;;;44.05;27.95;;;;;;;;;;5079909;28;20040;-59
2023/01/25 09:48:47;;;;;;;46.05;29.17;;;;;;;;;;5062529;28;20337;-57
2023/01/25 09:51:22;;;;;;;43.90;28.38;;;;;;;;;;5082851;28;20040;-58
2023/01/25 09:53:48;;;;;;;;;;;;;;;;;;5075466;28;20044;-58
2023/01/25 09:56:29;;;;;;;54.50;33.22;;;;;;;;;;5084434;28;19928;-58
2023/01/25 09:59:00;;;;;;;54.75;33.55;;;;;;;;;;5064576;28;20407;-58
2023/01/25 10:01:26;;;;;;;50.20;31.67;;;;;;;;;;5084196;28;20061;-57
2023/01/25 10:03:52;;;;;;;46.53;28.35;;;;;;;;;;5082880;28;20124;-57
2023/01/25 10:06:18;;;;;;;46.90;28.83;;;;;;;;;;5081464;28;20119;-57
2023/01/25 10:08:51;;;;;;;48.85;28.25;;;;;;;;;;5084026;28;20032;-57
2023/01/25 10:11:25;;;;;;;44.03;26.80;;;;;;;;;;5080403;28;20036;-56
2023/01/25 10:13:51;;;;;;;43.30;27.35;;;;;;;;;;5079365;28;20055;-58
2023/01/25 10:16:23;;;;;;;43.42;26.08;;;;;;;;;;5082902;28;20044;-57
2023/01/25 10:18:49;;;;;;;42.63;26.00;;;;;;;;;;5083764;28;20048;-57
2023/01/25 10:21:26;;;;;;;43.80;26.05;;;;;;;;;;5083804;28;20084;-57
2023/01/25 10:24:05;;;;;;;41.65;25.55;;;;;;;;;;5081487;28;20028;-58
2023/01/25 10:26:35;;;;;;;40.55;25.55;;;;;;;;;;5081401;28;20104;-56
2023/01/25 10:29:12;;;;;;;40.75;25.48;;;;;;;;;;5082449;28;20496;-58
2023/01/25 10:31:48;;;;;;;42.17;25.20;;;;;;;;;;5080412;28;20424;-59
2023/01/25 10:34:19;;;;;;;36.63;23.67;;;;;;;;;;5064019;28;20094;-54
2023/01/25 10:36:47;;;;;;;42.17;25.55;;;;;;;;;;5081415;28;20365;-59
2023/01/25 10:39:14;;;;;;;41.15;26.45;;;;;;;;;;5081361;28;20043;-58
2023/01/25 10:41:43;;;;;;;43.72;26.88;;;;;;;;;;5080453;28;20452;-58
2023/01/25 10:44:27;;;;;;;44.28;26.35;;;;;;;;;;5085108;28;20108;-58
2023/01/25 10:47:06;;;;;;;41.83;25.67;;;;;;;;;;5081062;28;20044;-57
2023/01/25 10:49:50;;;;;;;41.20;25.85;;;;;;;;;;5080814;28;20036;-57
2023/01/25 10:52:17;;;;;;;42.42;25.83;;;;;;;;;;5076664;28;20125;-58
2023/01/25 10:54:44;;;;;;;48.88;27.30;;;;;;;;;;5083242;28;20040;-57
2023/01/25 10:57:20;;;;;;;54.83;26.80;;;;;;;;;;5083346;28;20131;-58
2023/01/25 10:59:49;;;;;;;49.58;27.23;;;;;;;;;;5083418;28;20040;-60
2023/01/25 11:02:35;;;;;;;50.50;26.08;;;;;;;;;;5080871;28;20067;-59
2023/01/25 11:05:19;;;;;;;41.88;24.95;;;;;;;;;;5065550;28;20396;-58
2023/01/25 11:07:46;;;;;;;42.88;25.77;;;;;;;;;;5083279;28;20044;-59
2023/01/25 11:10:27;;;;;;;41.28;25.92;;;;;;;;;;5063814;28;20048;-58
2023/01/25 11:13:12;;;;;;;40.58;25.15;;;;;;;;;;5076611;28;20047;-57
2023/01/25 11:15:38;;;;;;;44.53;26.17;;;;;;;;;;5082152;28;20468;-60
2023/01/25 11:18:05;;;;;;;44.80;25.45;;;;;;;;;;5081493;28;20119;-56
2023/01/25 11:20:31;;;;;;;45.00;27.30;;;;;;;;;;5079236;28;20036;-59
2023/01/25 11:22:57;;;;;;;43.85;26.55;;;;;;;;;;5080266;28;20055;-58
2023/01/25 11:25:25;;;;;;;43.15;26.30;;;;;;;;;;5081468;28;20353;-58
2023/01/25 11:27:51;;;;;;;45.20;26.50;;;;;;;;;;5077563;28;20055;-57
2023/01/25 11:30:18;;;;;;;43.15;25.90;;;;;;;;;;5065622;28;20036;-59
2023/01/25 11:32:44;;;;;;;45.63;26.35;;;;;;;;;;5081504;28;20044;-57
2023/01/25 11:35:18;;;;;;;43.90;24.77;;;;;;;;;;5081646;28;20482;-59
2023/01/25 11:37:59;;;;;;;43.22;25.55;;;;;;;;;;5079367;28;20080;-58
2023/01/25 11:40:37;;;;;;;40.50;24.35;;;;;;;;;;5081829;28;20120;-58
2023/01/25 11:43:22;;;;;;;47.20;27.77;;;;;;;;;;5065982;28;20358;-57
2023/01/25 11:46:11;;;;;;;47.00;27.10;;;;;;;;;;5061647;28;20039;-58
2023/01/25 11:48:56;;;;;;;46.40;25.38;;;;;;;;;;5075426;28;20063;-59
2023/01/25 11:51:23;;;;;;;49.50;27.88;;;;;;;;;;5077891;28;20435;-59
2023/01/25 11:54:10;;;;;;;50.45;27.00;;;;;;;;;;5080969;28;20044;-58
2023/01/25 11:56:51;;;;;;;49.08;26.92;;;;;;;;;;5081127;28;20059;-58
2023/01/25 11:59:24;;;;;;;49.55;27.38;;;;;;;;;;5081204;28;20029;-58
2023/01/25 12:02:09;;;;;;;47.63;26.90;;;;;;;;;;5076697;28;20055;-58
2023/01/25 12:04:35;;;;;;;49.00;27.30;;;;;;;;;;5078535;28;20181;-57
2023/01/25 12:07:05;;;;;;;47.28;27.02;;;;;;;;;;5081483;28;20451;-58
2023/01/25 12:09:46;;;;;;;48.30;26.90;;;;;;;;;;5062647;28;20037;-56
2023/01/25 12:12:32;;;;;;;47.63;26.65;;;;;;;;;;5078970;28;20041;-57
2023/01/25 12:15:30;;;;;;;48.25;26.63;;;;;;;;;;5078843;28;20040;-58
2023/01/25 12:18:12;;;;;;;46.60;26.30;;;;;;;;;;5026530;28;20091;-58
2023/01/25 12:20:44;;;;;;;45.22;26.20;;;;;;;;;;5079458;28;20036;-58
2023/01/25 12:23:14;;;;;;;42.08;24.70;;;;;;;;;;5076160;28;20055;-59
2023/01/25 12:25:54;;;;;;;50.75;25.30;;;;;;;;;;5081496;28;20166;-59
2023/01/25 12:28:25;;;;;;;48.85;25.70;;;;;;;;;;5079542;28;20037;-57
2023/01/25 12:30:51;;;;;;;44.13;25.75;;;;;;;;;;5078581;28;20040;-59
2023/01/25 12:33:22;;;;;;;41.30;23.83;;;;;;;;;;5079498;28;20038;-59
2023/01/25 12:35:50;;;;;;;42.80;24.88;;;;;;;;;;5082472;28;20036;-58
2023/01/25 12:38:32;;;;;;;43.20;26.13;;;;;;;;;;5079687;28;20085;-58
2023/01/25 12:41:12;;;;;;;43.35;25.20;;;;;;;;;;5071830;28;20040;-59
2023/01/25 12:43:46;;;;;;;41.17;23.77;;;;;;;;;;5080067;28;20115;-60
2023/01/25 12:46:21;;;;;;;40.15;23.75;;;;;;;;;;5060474;28;20369;-58
2023/01/25 12:48:51;;;;;;;39.97;23.77;;;;;;;;;;5077679;28;20094;-59
2023/01/25 12:51:18;;;;;;;39.17;23.10;;;;;;;;;;5063849;28;20055;-58
2023/01/25 12:53:48;;;;;;;40.17;23.17;;;;;;;;;;5078358;28;20464;-56
2023/01/25 12:56:39;;;;;;;39.80;24.30;;;;;;;;;;5079188;28;20098;-59
2023/01/25 12:59:14;;;;;;;41.92;25.08;;;;;;;;;;5082166;28;20055;-58
2023/01/25 13:02:13;;;;;;;38.60;23.63;;;;;;;;;;5063027;28;20460;-58
2023/01/25 13:04:57;;;;;;;43.03;25.17;;;;;;;;;;5034578;28;20054;-58
2023/01/25 13:07:27;;;;;;;44.08;25.83;;;;;;;;;;5078814;28;20488;-57
2023/01/25 13:10:02;;;;;;;41.65;25.92;;;;;;;;;;5077895;28;20581;-58
2023/01/25 13:12:28;;;;;;;44.72;26.48;;;;;;;;;;5078075;28;20088;-58
2023/01/25 13:14:54;;;;;;;46.05;26.95;;;;;;;;;;5080180;28;20127;-57
2023/01/25 13:17:22;;;;;;;47.28;27.48;;;;;;;;;;5078659;28;20492;-57
2023/01/25 13:19:49;;;;;;;41.88;25.08;;;;;;;;;;5080284;28;20037;-58
2023/01/25 13:22:35;;;;;;;45.85;26.35;;;;;;;;;;5084464;28;20032;-57
2023/01/25 13:25:04;;;;;;;49.88;28.38;;;;;;;;;;5085056;28;20091;-56
2023/01/25 13:27:35;;;;;;;43.67;25.05;;;;;;;;;;5097928;28;20470;-57
2023/01/25 13:30:20;;;;;;;47.20;28.15;;;;;;;;;;5084146;28;20043;-58
2023/01/25 13:32:49;;;;;;;43.58;24.55;;;;;;;;;;5083709;28;20173;-57
2023/01/25 13:35:29;;;;;;;47.97;27.77;;;;;;;;;;5084075;28;20040;-55
2023/01/25 13:38:05;;;;;;;49.65;28.45;;;;;;;;;;5080588;28;20059;-57
2023/01/25 13:40:36;;;;;;;52.08;29.08;;;;;;;;;;5079684;28;20064;-56
2023/01/25 13:43:16;;;;;;;50.25;27.38;;;;;;;;;;5068947;28;20063;-54
2023/01/25 13:45:42;;;;;;;47.53;27.23;;;;;;;;;;5084678;28;20086;-56
2023/01/25 13:48:08;;;;;;;48.42;26.90;;;;;;;;;;5080180;28;20044;-60
2023/01/25 13:50:38;;;;;;;49.53;27.67;;;;;;;;;;5081231;28;20385;-57
2023/01/25 13:53:14;;;;;;;48.45;27.50;;;;;;;;;;5084389;28;20033;-57
2023/01/25 13:55:45;;;;;;;50.22;28.42;;;;;;;;;;5082126;28;20443;-57
2023/01/25 13:58:30;;;;;;;50.47;27.08;;;;;;;;;;5081752;28;20481;-57
2023/01/25 14:01:05;;;;;;;52.00;29.10;;;;;;;;;;5083395;28;20475;-58
2023/01/25 14:03:31;;;;;;;;;;;;;;;;;;5079232;28;20460;-59
2023/01/25 14:06:01;;;;;;;50.65;27.98;;;;;;;;;;5084070;28;19989;-57
2023/01/25 14:08:27;;;;;;;50.95;27.80;;;;;;;;;;5066666;28;20198;-57
2023/01/25 14:10:54;;;;;;;53.90;29.05;;;;;;;;;;5083115;28;20238;-59
2023/01/25 14:13:20;;;;;;;53.55;27.08;;;;;;;;;;5080224;28;20448;-59
2023/01/25 14:15:53;;;;;;;49.33;27.10;;;;;;;;;;5085631;28;20044;-57
2023/01/25 14:18:19;;;;;;;50.15;28.52;;;;;;;;;;5085120;28;20528;-59
2023/01/25 14:20:46;;;;;;;55.90;29.95;;;;;;;;;;5083408;28;20127;-59
2023/01/25 14:23:20;;;;;;;54.25;30.35;;;;;;;;;;5081947;28;20032;-57
2023/01/25 14:25:46;;;;;;;58.35;31.02;;;;;;;;;;5084818;28;20032;-59
2023/01/25 14:28:13;;;;;;;54.25;30.20;;;;;;;;;;5081193;28;20033;-57
2023/01/25 14:30:39;;;;;;;55.38;30.45;;;;;;;;;;5084102;28;20440;-55
2023/01/25 14:33:17;;;;;;;60.47;30.77;;;;;;;;;;5082154;28;20060;-56